sensor_id;sensor_type;location;lat;lon;timestamp;P1;durP1;ratioP1;P2;durP2;ratioP2
71773;SDS011;59607;52.130;5.430;2023-04-15T00:00:58;4.37;;;2.57;;
71773;SDS011;59607;52.130;5.430;2023-04-15T00:03:29;4.70;;;2.70;;
71773;SDS011;59607;52.130;5.430;2023-04-15T00:05:56;6.82;;;3.30;;
71773;SDS011;59607;52.130;5.430;2023-04-15T00:08:27;6.43;;;3.33;;
71773;SDS011;59607;52.130;5.430;2023-04-15T00:10:55;6.85;;;2.90;;
71773;SDS011;59607;52.130;5.430;2023-04-15T00:13:25;3.80;;;2.60;;
71773;SDS011;59607;52.130;5.430;2023-04-15T00:15:51;2.97;;;2.53;;
71773;SDS011;59607;52.130;5.430;2023-04-15T00:18:17;3.47;;;2.83;;
71773;SDS011;59607;52.130;5.430;2023-04-15T00:20:44;6.35;;;2.50;;
71773;SDS011;59607;52.130;5.430;2023-04-15T00:23:16;3.83;;;2.83;;
71773;SDS011;59607;52.130;5.430;2023-04-15T00:25:43;3.53;;;2.70;;
71773;SDS011;59607;52.130;5.430;2023-04-15T00:28:12;5.35;;;2.67;;
71773;SDS011;59607;52.130;5.430;2023-04-15T00:30:40;4.18;;;2.80;;
71773;SDS011;59607;52.130;5.430;2023-04-15T00:33:06;4.13;;;2.95;;
71773;SDS011;59607;52.130;5.430;2023-04-15T00:35:39;5.65;;;2.90;;
71773;SDS011;59607;52.130;5.430;2023-04-15T00:38:09;6.97;;;2.80;;
71773;SDS011;59607;52.130;5.430;2023-04-15T00:40:36;5.20;;;2.83;;
71773;SDS011;59607;52.130;5.430;2023-04-15T00:43:09;8.13;;;2.72;;
71773;SDS011;59607;52.130;5.430;2023-04-15T00:45:36;7.10;;;3.20;;
71773;SDS011;59607;52.130;5.430;2023-04-15T00:48:06;3.78;;;3.00;;
71773;SDS011;59607;52.130;5.430;2023-04-15T00:50:36;5.70;;;3.27;;
71773;SDS011;59607;52.130;5.430;2023-04-15T00:53:03;6.50;;;2.83;;
71773;SDS011;59607;52.130;5.430;2023-04-15T00:55:46;6.13;;;3.15;;
71773;SDS011;59607;52.130;5.430;2023-04-15T00:58:16;3.42;;;3.10;;
71773;SDS011;59607;52.130;5.430;2023-04-15T01:00:43;3.38;;;2.55;;
71773;SDS011;59607;52.130;5.430;2023-04-15T01:03:13;3.63;;;2.87;;
71773;SDS011;59607;52.130;5.430;2023-04-15T01:05:44;5.18;;;3.10;;
71773;SDS011;59607;52.130;5.430;2023-04-15T01:08:11;6.43;;;2.95;;
71773;SDS011;59607;52.130;5.430;2023-04-15T01:10:44;5.10;;;2.90;;
71773;SDS011;59607;52.130;5.430;2023-04-15T01:13:11;6.30;;;3.33;;
71773;SDS011;59607;52.130;5.430;2023-04-15T01:15:41;3.70;;;2.53;;
71773;SDS011;59607;52.130;5.430;2023-04-15T01:18:11;5.05;;;2.67;;
71773;SDS011;59607;52.130;5.430;2023-04-15T01:20:44;6.47;;;3.38;;
71773;SDS011;59607;52.130;5.430;2023-04-15T01:23:14;4.40;;;2.92;;
71773;SDS011;59607;52.130;5.430;2023-04-15T01:25:42;5.40;;;2.95;;
71773;SDS011;59607;52.130;5.430;2023-04-15T01:28:15;5.40;;;2.97;;
71773;SDS011;59607;52.130;5.430;2023-04-15T01:30:42;3.90;;;2.78;;
71773;SDS011;59607;52.130;5.430;2023-04-15T01:33:16;4.40;;;2.60;;
71773;SDS011;59607;52.130;5.430;2023-04-15T01:35:42;4.32;;;2.63;;
71773;SDS011;59607;52.130;5.430;2023-04-15T01:38:18;3.88;;;2.97;;
71773;SDS011;59607;52.130;5.430;2023-04-15T01:40:45;4.30;;;2.43;;
71773;SDS011;59607;52.130;5.430;2023-04-15T01:43:11;2.67;;;2.45;;
71773;SDS011;59607;52.130;5.430;2023-04-15T01:45:38;4.43;;;2.58;;
71773;SDS011;59607;52.130;5.430;2023-04-15T01:48:04;3.28;;;2.65;;
71773;SDS011;59607;52.130;5.430;2023-04-15T01:50:32;4.78;;;2.72;;
71773;SDS011;59607;52.130;5.430;2023-04-15T01:53:07;5.10;;;2.73;;
71773;SDS011;59607;52.130;5.430;2023-04-15T01:55:34;5.45;;;3.00;;
71773;SDS011;59607;52.130;5.430;2023-04-15T01:58:00;6.40;;;2.97;;
71773;SDS011;59607;52.130;5.430;2023-04-15T02:00:43;7.40;;;3.08;;
71773;SDS011;59607;52.130;5.430;2023-04-15T02:03:13;3.47;;;2.25;;
71773;SDS011;59607;52.130;5.430;2023-04-15T02:05:39;6.23;;;2.93;;
71773;SDS011;59607;52.130;5.430;2023-04-15T02:08:09;3.55;;;2.83;;
71773;SDS011;59607;52.130;5.430;2023-04-15T02:10:38;5.57;;;3.03;;
71773;SDS011;59607;52.130;5.430;2023-04-15T02:13:05;3.40;;;2.40;;
71773;SDS011;59607;52.130;5.430;2023-04-15T02:15:45;4.25;;;2.95;;
71773;SDS011;59607;52.130;5.430;2023-04-15T02:18:25;7.43;;;2.90;;
71773;SDS011;59607;52.130;5.430;2023-04-15T02:20:52;6.32;;;2.97;;
71773;SDS011;59607;52.130;5.430;2023-04-15T02:23:32;4.00;;;2.90;;
71773;SDS011;59607;52.130;5.430;2023-04-15T02:26:01;8.25;;;3.17;;
71773;SDS011;59607;52.130;5.430;2023-04-15T02:28:28;8.82;;;2.58;;
71773;SDS011;59607;52.130;5.430;2023-04-15T02:30:54;4.50;;;2.77;;
71773;SDS011;59607;52.130;5.430;2023-04-15T02:33:22;4.72;;;2.97;;
71773;SDS011;59607;52.130;5.430;2023-04-15T02:35:52;3.97;;;2.85;;
71773;SDS011;59607;52.130;5.430;2023-04-15T02:38:18;7.47;;;3.08;;
71773;SDS011;59607;52.130;5.430;2023-04-15T02:40:45;6.68;;;2.83;;
71773;SDS011;59607;52.130;5.430;2023-04-15T02:43:18;3.07;;;2.53;;
71773;SDS011;59607;52.130;5.430;2023-04-15T02:45:45;5.05;;;3.20;;
71773;SDS011;59607;52.130;5.430;2023-04-15T02:48:14;4.32;;;3.53;;
71773;SDS011;59607;52.130;5.430;2023-04-15T02:50:46;3.88;;;2.67;;
71773;SDS011;59607;52.130;5.430;2023-04-15T02:53:16;3.63;;;3.22;;
71773;SDS011;59607;52.130;5.430;2023-04-15T02:55:47;3.53;;;2.77;;
71773;SDS011;59607;52.130;5.430;2023-04-15T02:58:13;3.03;;;2.72;;
71773;SDS011;59607;52.130;5.430;2023-04-15T03:00:40;3.67;;;3.30;;
71773;SDS011;59607;52.130;5.430;2023-04-15T03:03:10;4.72;;;2.60;;
71773;SDS011;59607;52.130;5.430;2023-04-15T03:05:37;5.00;;;3.38;;
71773;SDS011;59607;52.130;5.430;2023-04-15T03:08:04;4.27;;;2.83;;
71773;SDS011;59607;52.130;5.430;2023-04-15T03:10:36;3.90;;;2.53;;
71773;SDS011;59607;52.130;5.430;2023-04-15T03:13:03;3.30;;;2.95;;
71773;SDS011;59607;52.130;5.430;2023-04-15T03:15:35;4.07;;;3.20;;
71773;SDS011;59607;52.130;5.430;2023-04-15T03:18:02;3.90;;;2.95;;
71773;SDS011;59607;52.130;5.430;2023-04-15T03:20:30;5.87;;;3.30;;
71773;SDS011;59607;52.130;5.430;2023-04-15T03:23:00;5.80;;;3.08;;
71773;SDS011;59607;52.130;5.430;2023-04-15T03:25:26;4.55;;;3.25;;
71773;SDS011;59607;52.130;5.430;2023-04-15T03:27:56;3.53;;;2.95;;
71773;SDS011;59607;52.130;5.430;2023-04-15T03:30:23;3.17;;;2.88;;
71773;SDS011;59607;52.130;5.430;2023-04-15T03:32:49;3.47;;;2.67;;
71773;SDS011;59607;52.130;5.430;2023-04-15T03:35:16;5.35;;;3.22;;
71773;SDS011;59607;52.130;5.430;2023-04-15T03:37:43;3.15;;;2.88;;
71773;SDS011;59607;52.130;5.430;2023-04-15T03:40:17;7.35;;;3.45;;
71773;SDS011;59607;52.130;5.430;2023-04-15T03:43:10;4.20;;;2.83;;
71773;SDS011;59607;52.130;5.430;2023-04-15T03:45:37;4.93;;;3.23;;
71773;SDS011;59607;52.130;5.430;2023-04-15T03:48:05;3.20;;;2.70;;
71773;SDS011;59607;52.130;5.430;2023-04-15T03:50:43;4.68;;;2.72;;
71773;SDS011;59607;52.130;5.430;2023-04-15T03:53:21;3.63;;;3.30;;
71773;SDS011;59607;52.130;5.430;2023-04-15T03:55:47;4.53;;;3.42;;
71773;SDS011;59607;52.130;5.430;2023-04-15T03:58:15;3.80;;;3.10;;
71773;SDS011;59607;52.130;5.430;2023-04-15T04:00:44;4.10;;;3.40;;
71773;SDS011;59607;52.130;5.430;2023-04-15T04:03:10;4.22;;;3.83;;
71773;SDS011;59607;52.130;5.430;2023-04-15T04:05:38;3.90;;;3.47;;
71773;SDS011;59607;52.130;5.430;2023-04-15T04:08:10;6.10;;;3.33;;
71773;SDS011;59607;52.130;5.430;2023-04-15T04:10:40;3.97;;;3.13;;
71773;SDS011;59607;52.130;5.430;2023-04-15T04:13:07;4.30;;;3.00;;
71773;SDS011;59607;52.130;5.430;2023-04-15T04:15:34;7.20;;;3.58;;
71773;SDS011;59607;52.130;5.430;2023-04-15T04:18:06;5.65;;;3.78;;
71773;SDS011;59607;52.130;5.430;2023-04-15T04:20:35;4.57;;;3.03;;
71773;SDS011;59607;52.130;5.430;2023-04-15T04:23:02;3.33;;;2.90;;
71773;SDS011;59607;52.130;5.430;2023-04-15T04:25:35;5.03;;;3.80;;
71773;SDS011;59607;52.130;5.430;2023-04-15T04:28:02;4.72;;;3.83;;
71773;SDS011;59607;52.130;5.430;2023-04-15T04:30:29;3.50;;;3.17;;
71773;SDS011;59607;52.130;5.430;2023-04-15T04:32:59;8.35;;;3.70;;
71773;SDS011;59607;52.130;5.430;2023-04-15T04:35:26;4.53;;;3.57;;
71773;SDS011;59607;52.130;5.430;2023-04-15T04:37:55;5.00;;;3.60;;
71773;SDS011;59607;52.130;5.430;2023-04-15T04:40:23;5.78;;;4.05;;
71773;SDS011;59607;52.130;5.430;2023-04-15T04:42:49;8.10;;;3.85;;
71773;SDS011;59607;52.130;5.430;2023-04-15T04:45:16;4.22;;;3.53;;
71773;SDS011;59607;52.130;5.430;2023-04-15T04:47:44;4.87;;;3.83;;
71773;SDS011;59607;52.130;5.430;2023-04-15T04:50:13;5.93;;;3.92;;
71773;SDS011;59607;52.130;5.430;2023-04-15T04:52:39;5.70;;;3.50;;
71773;SDS011;59607;52.130;5.430;2023-04-15T04:55:11;4.47;;;3.97;;
71773;SDS011;59607;52.130;5.430;2023-04-15T04:57:38;5.38;;;3.38;;
71773;SDS011;59607;52.130;5.430;2023-04-15T05:00:11;5.40;;;3.57;;
71773;SDS011;59607;52.130;5.430;2023-04-15T05:02:41;4.68;;;3.92;;
71773;SDS011;59607;52.130;5.430;2023-04-15T05:05:10;6.38;;;3.80;;
71773;SDS011;59607;52.130;5.430;2023-04-15T05:07:41;5.68;;;4.00;;
71773;SDS011;59607;52.130;5.430;2023-04-15T05:10:07;6.50;;;3.67;;
71773;SDS011;59607;52.130;5.430;2023-04-15T05:12:35;3.53;;;3.23;;
71773;SDS011;59607;52.130;5.430;2023-04-15T05:15:07;5.90;;;3.67;;
71773;SDS011;59607;52.130;5.430;2023-04-15T05:17:34;5.38;;;4.20;;
71773;SDS011;59607;52.130;5.430;2023-04-15T05:20:07;5.72;;;3.65;;
71773;SDS011;59607;52.130;5.430;2023-04-15T05:22:35;5.70;;;3.58;;
71773;SDS011;59607;52.130;5.430;2023-04-15T05:25:05;5.67;;;3.87;;
71773;SDS011;59607;52.130;5.430;2023-04-15T05:27:33;5.75;;;3.70;;
71773;SDS011;59607;52.130;5.430;2023-04-15T05:30:06;5.40;;;3.95;;
71773;SDS011;59607;52.130;5.430;2023-04-15T05:32:41;4.90;;;3.20;;
71773;SDS011;59607;52.130;5.430;2023-04-15T05:35:11;4.00;;;3.45;;
71773;SDS011;59607;52.130;5.430;2023-04-15T05:37:41;5.00;;;3.40;;
71773;SDS011;59607;52.130;5.430;2023-04-15T05:40:08;5.72;;;3.70;;
71773;SDS011;59607;52.130;5.430;2023-04-15T05:42:39;3.60;;;3.30;;
71773;SDS011;59607;52.130;5.430;2023-04-15T05:45:06;5.75;;;3.45;;
71773;SDS011;59607;52.130;5.430;2023-04-15T05:47:42;5.15;;;4.07;;
71773;SDS011;59607;52.130;5.430;2023-04-15T05:50:08;4.20;;;3.27;;
71773;SDS011;59607;52.130;5.430;2023-04-15T05:52:35;6.00;;;3.85;;
71773;SDS011;59607;52.130;5.430;2023-04-15T05:55:06;4.45;;;3.75;;
71773;SDS011;59607;52.130;5.430;2023-04-15T05:57:32;3.80;;;3.20;;
71773;SDS011;59607;52.130;5.430;2023-04-15T05:59:59;3.97;;;3.58;;
71773;SDS011;59607;52.130;5.430;2023-04-15T06:02:29;4.20;;;3.80;;
71773;SDS011;59607;52.130;5.430;2023-04-15T06:04:56;4.38;;;3.80;;
71773;SDS011;59607;52.130;5.430;2023-04-15T06:07:26;4.60;;;4.20;;
71773;SDS011;59607;52.130;5.430;2023-04-15T06:09:58;5.10;;;3.83;;
71773;SDS011;59607;52.130;5.430;2023-04-15T06:12:27;4.35;;;3.95;;
71773;SDS011;59607;52.130;5.430;2023-04-15T06:14:59;5.03;;;3.93;;
71773;SDS011;59607;52.130;5.430;2023-04-15T06:17:26;4.32;;;3.83;;
71773;SDS011;59607;52.130;5.430;2023-04-15T06:19:56;6.00;;;4.00;;
71773;SDS011;59607;52.130;5.430;2023-04-15T06:22:26;5.68;;;4.00;;
71773;SDS011;59607;52.130;5.430;2023-04-15T06:24:55;5.00;;;4.40;;
71773;SDS011;59607;52.130;5.430;2023-04-15T06:27:25;5.13;;;4.20;;
71773;SDS011;59607;52.130;5.430;2023-04-15T06:29:51;5.43;;;4.32;;
71773;SDS011;59607;52.130;5.430;2023-04-15T06:32:17;4.43;;;4.03;;
71773;SDS011;59607;52.130;5.430;2023-04-15T06:34:48;6.80;;;4.15;;
71773;SDS011;59607;52.130;5.430;2023-04-15T06:37:14;5.05;;;4.40;;
71773;SDS011;59607;52.130;5.430;2023-04-15T06:39:41;5.93;;;4.33;;
71773;SDS011;59607;52.130;5.430;2023-04-15T06:42:09;5.38;;;4.53;;
71773;SDS011;59607;52.130;5.430;2023-04-15T06:44:39;5.00;;;4.43;;
71773;SDS011;59607;52.130;5.430;2023-04-15T06:47:05;5.65;;;5.05;;
71773;SDS011;59607;52.130;5.430;2023-04-15T06:49:38;6.32;;;4.88;;
71773;SDS011;59607;52.130;5.430;2023-04-15T06:52:05;5.00;;;4.60;;
71773;SDS011;59607;52.130;5.430;2023-04-15T06:54:45;5.30;;;4.50;;
71773;SDS011;59607;52.130;5.430;2023-04-15T06:57:17;6.22;;;5.30;;
71773;SDS011;59607;52.130;5.430;2023-04-15T06:59:46;6.03;;;5.15;;
71773;SDS011;59607;52.130;5.430;2023-04-15T07:02:15;6.20;;;4.93;;
71773;SDS011;59607;52.130;5.430;2023-04-15T07:04:46;5.97;;;4.90;;
71773;SDS011;59607;52.130;5.430;2023-04-15T07:07:12;5.10;;;4.60;;
71773;SDS011;59607;52.130;5.430;2023-04-15T07:09:50;6.32;;;5.70;;
71773;SDS011;59607;52.130;5.430;2023-04-15T07:12:19;6.60;;;5.50;;
71773;SDS011;59607;52.130;5.430;2023-04-15T07:14:52;6.65;;;5.63;;
71773;SDS011;59607;52.130;5.430;2023-04-15T07:17:18;5.97;;;4.70;;
71773;SDS011;59607;52.130;5.430;2023-04-15T07:19:44;6.22;;;4.70;;
71773;SDS011;59607;52.130;5.430;2023-04-15T07:22:15;7.55;;;5.25;;
71773;SDS011;59607;52.130;5.430;2023-04-15T07:24:42;5.00;;;4.53;;
71773;SDS011;59607;52.130;5.430;2023-04-15T07:27:11;8.30;;;5.40;;
71773;SDS011;59607;52.130;5.430;2023-04-15T07:29:41;8.83;;;5.50;;
71773;SDS011;59607;52.130;5.430;2023-04-15T07:32:08;5.53;;;5.03;;
71773;SDS011;59607;52.130;5.430;2023-04-15T07:34:43;10.07;;;4.80;;
71773;SDS011;59607;52.130;5.430;2023-04-15T07:37:10;5.47;;;4.85;;
71773;SDS011;59607;52.130;5.430;2023-04-15T07:39:39;5.15;;;4.63;;
71773;SDS011;59607;52.130;5.430;2023-04-15T07:42:07;4.60;;;4.20;;
71773;SDS011;59607;52.130;5.430;2023-04-15T07:44:34;7.43;;;3.90;;
71773;SDS011;59607;52.130;5.430;2023-04-15T07:47:01;4.35;;;3.50;;
71773;SDS011;59607;52.130;5.430;2023-04-15T07:49:32;3.72;;;3.40;;
71773;SDS011;59607;52.130;5.430;2023-04-15T07:51:58;4.55;;;3.13;;
71773;SDS011;59607;52.130;5.430;2023-04-15T07:54:28;4.87;;;3.10;;
71773;SDS011;59607;52.130;5.430;2023-04-15T07:56:55;3.53;;;2.70;;
71773;SDS011;59607;52.130;5.430;2023-04-15T07:59:21;4.13;;;3.35;;
71773;SDS011;59607;52.130;5.430;2023-04-15T08:01:47;4.13;;;2.60;;
71773;SDS011;59607;52.130;5.430;2023-04-15T08:04:15;4.97;;;3.20;;
71773;SDS011;59607;52.130;5.430;2023-04-15T08:06:55;3.77;;;3.37;;
71773;SDS011;59607;52.130;5.430;2023-04-15T08:09:23;4.00;;;2.92;;
71773;SDS011;59607;52.130;5.430;2023-04-15T08:11:49;3.28;;;2.75;;
71773;SDS011;59607;52.130;5.430;2023-04-15T08:14:18;3.15;;;2.65;;
71773;SDS011;59607;52.130;5.430;2023-04-15T08:16:48;3.30;;;2.88;;
71773;SDS011;59607;52.130;5.430;2023-04-15T08:19:14;3.00;;;2.43;;
71773;SDS011;59607;52.130;5.430;2023-04-15T08:21:41;3.53;;;2.78;;
71773;SDS011;59607;52.130;5.430;2023-04-15T08:24:11;2.70;;;2.40;;
71773;SDS011;59607;52.130;5.430;2023-04-15T08:26:38;3.05;;;2.15;;
71773;SDS011;59607;52.130;5.430;2023-04-15T08:29:10;4.40;;;1.98;;
71773;SDS011;59607;52.130;5.430;2023-04-15T08:31:39;3.40;;;2.23;;
71773;SDS011;59607;52.130;5.430;2023-04-15T08:34:05;3.17;;;2.45;;
71773;SDS011;59607;52.130;5.430;2023-04-15T08:36:41;2.67;;;2.03;;
71773;SDS011;59607;52.130;5.430;2023-04-15T08:39:09;2.70;;;1.80;;
71773;SDS011;59607;52.130;5.430;2023-04-15T08:42:02;2.75;;;2.10;;
71773;SDS011;59607;52.130;5.430;2023-04-15T08:44:39;1.77;;;1.67;;
71773;SDS011;59607;52.130;5.430;2023-04-15T08:47:12;2.75;;;1.50;;
71773;SDS011;59607;52.130;5.430;2023-04-15T08:49:40;2.00;;;1.80;;
71773;SDS011;59607;52.130;5.430;2023-04-15T08:52:10;2.63;;;1.98;;
71773;SDS011;59607;52.130;5.430;2023-04-15T08:54:37;2.97;;;2.20;;
71773;SDS011;59607;52.130;5.430;2023-04-15T08:57:10;2.33;;;2.13;;
71773;SDS011;59607;52.130;5.430;2023-04-15T08:59:37;2.55;;;2.10;;
71773;SDS011;59607;52.130;5.430;2023-04-15T09:02:06;3.50;;;2.60;;
71773;SDS011;59607;52.130;5.430;2023-04-15T09:04:34;3.13;;;2.60;;
71773;SDS011;59607;52.130;5.430;2023-04-15T09:07:00;2.75;;;2.22;;
71773;SDS011;59607;52.130;5.430;2023-04-15T09:09:28;3.93;;;2.00;;
71773;SDS011;59607;52.130;5.430;2023-04-15T09:12:00;3.45;;;2.80;;
71773;SDS011;59607;52.130;5.430;2023-04-15T09:14:27;3.85;;;2.85;;
71773;SDS011;59607;52.130;5.430;2023-04-15T09:17:12;5.45;;;2.45;;
71773;SDS011;59607;52.130;5.430;2023-04-15T09:19:44;3.85;;;2.40;;
71773;SDS011;59607;52.130;5.430;2023-04-15T09:22:11;2.90;;;2.30;;
71773;SDS011;59607;52.130;5.430;2023-04-15T09:24:57;2.05;;;1.58;;
71773;SDS011;59607;52.130;5.430;2023-04-15T09:27:48;3.15;;;2.22;;
71773;SDS011;59607;52.130;5.430;2023-04-15T09:30:15;2.67;;;2.00;;
71773;SDS011;59607;52.130;5.430;2023-04-15T09:35:20;2.03;;;1.77;;
71773;SDS011;59607;52.130;5.430;2023-04-15T09:38:08;3.28;;;1.77;;
71773;SDS011;59607;52.130;5.430;2023-04-15T09:40:40;1.98;;;1.70;;
71773;SDS011;59607;52.130;5.430;2023-04-15T09:43:09;2.28;;;1.90;;
71773;SDS011;59607;52.130;5.430;2023-04-15T09:45:46;2.10;;;1.88;;
71773;SDS011;59607;52.130;5.430;2023-04-15T09:48:39;2.03;;;1.43;;
71773;SDS011;59607;52.130;5.430;2023-04-15T09:51:05;5.68;;;1.95;;
71773;SDS011;59607;52.130;5.430;2023-04-15T09:53:33;5.93;;;2.53;;
71773;SDS011;59607;52.130;5.430;2023-04-15T09:56:08;2.95;;;2.00;;
71773;SDS011;59607;52.130;5.430;2023-04-15T09:58:35;2.80;;;1.92;;
71773;SDS011;59607;52.130;5.430;2023-04-15T10:01:06;2.33;;;1.40;;
71773;SDS011;59607;52.130;5.430;2023-04-15T10:03:34;1.73;;;1.20;;
71773;SDS011;59607;52.130;5.430;2023-04-15T10:06:05;2.15;;;1.20;;
71773;SDS011;59607;52.130;5.430;2023-04-15T10:08:34;2.90;;;1.52;;
71773;SDS011;59607;52.130;5.430;2023-04-15T10:11:01;2.28;;;2.00;;
71773;SDS011;59607;52.130;5.430;2023-04-15T10:13:35;2.33;;;1.33;;
71773;SDS011;59607;52.130;5.430;2023-04-15T10:16:25;1.30;;;1.10;;
71773;SDS011;59607;52.130;5.430;2023-04-15T10:18:57;1.70;;;1.20;;
71773;SDS011;59607;52.130;5.430;2023-04-15T10:21:27;1.65;;;1.42;;
71773;SDS011;59607;52.130;5.430;2023-04-15T10:23:56;2.25;;;1.05;;
71773;SDS011;59607;52.130;5.430;2023-04-15T10:26:28;2.73;;;1.37;;
71773;SDS011;59607;52.130;5.430;2023-04-15T10:28:58;2.97;;;1.58;;
71773;SDS011;59607;52.130;5.430;2023-04-15T10:31:29;2.00;;;1.48;;
71773;SDS011;59607;52.130;5.430;2023-04-15T10:33:57;2.45;;;1.70;;
71773;SDS011;59607;52.130;5.430;2023-04-15T10:36:32;2.50;;;1.92;;
71773;SDS011;59607;52.130;5.430;2023-04-15T10:38:58;1.47;;;1.13;;
71773;SDS011;59607;52.130;5.430;2023-04-15T10:41:30;2.25;;;1.60;;
71773;SDS011;59607;52.130;5.430;2023-04-15T10:44:02;1.83;;;1.20;;
71773;SDS011;59607;52.130;5.430;2023-04-15T10:46:37;3.28;;;1.42;;
71773;SDS011;59607;52.130;5.430;2023-04-15T10:49:09;2.22;;;1.60;;
71773;SDS011;59607;52.130;5.430;2023-04-15T10:51:56;1.80;;;1.10;;
71773;SDS011;59607;52.130;5.430;2023-04-15T10:59:35;3.90;;;1.15;;
71773;SDS011;59607;52.130;5.430;2023-04-15T11:02:07;2.97;;;1.45;;
71773;SDS011;59607;52.130;5.430;2023-04-15T11:04:53;2.90;;;0.93;;
71773;SDS011;59607;52.130;5.430;2023-04-15T11:07:40;1.88;;;0.95;;
71773;SDS011;59607;52.130;5.430;2023-04-15T11:10:49;1.60;;;1.40;;
71773;SDS011;59607;52.130;5.430;2023-04-15T11:13:19;3.47;;;1.42;;
71773;SDS011;59607;52.130;5.430;2023-04-15T11:15:58;2.10;;;0.85;;
71773;SDS011;59607;52.130;5.430;2023-04-15T11:18:52;2.40;;;1.00;;
71773;SDS011;59607;52.130;5.430;2023-04-15T11:21:23;1.15;;;1.00;;
71773;SDS011;59607;52.130;5.430;2023-04-15T11:23:55;2.80;;;0.93;;
71773;SDS011;59607;52.130;5.430;2023-04-15T11:26:24;2.13;;;1.10;;
71773;SDS011;59607;52.130;5.430;2023-04-15T11:28:57;4.70;;;1.10;;
71773;SDS011;59607;52.130;5.430;2023-04-15T11:31:25;1.93;;;0.70;;
71773;SDS011;59607;52.130;5.430;2023-04-15T11:34:11;2.35;;;0.80;;
71773;SDS011;59607;52.130;5.430;2023-04-15T11:36:48;3.58;;;1.27;;
71773;SDS011;59607;52.130;5.430;2023-04-15T11:39:24;1.88;;;1.33;;
71773;SDS011;59607;52.130;5.430;2023-04-15T11:41:51;1.95;;;1.35;;
71773;SDS011;59607;52.130;5.430;2023-04-15T11:44:20;1.60;;;0.93;;
71773;SDS011;59607;52.130;5.430;2023-04-15T11:46:46;2.15;;;0.95;;
71773;SDS011;59607;52.130;5.430;2023-04-15T11:49:25;1.60;;;0.68;;
71773;SDS011;59607;52.130;5.430;2023-04-15T11:51:56;1.85;;;0.93;;
71773;SDS011;59607;52.130;5.430;2023-04-15T11:54:23;9.20;;;1.45;;
71773;SDS011;59607;52.130;5.430;2023-04-15T11:56:55;2.67;;;1.03;;
71773;SDS011;59607;52.130;5.430;2023-04-15T11:59:22;1.98;;;0.95;;
71773;SDS011;59607;52.130;5.430;2023-04-15T12:02:09;1.73;;;0.90;;
71773;SDS011;59607;52.130;5.430;2023-04-15T12:04:43;2.33;;;1.30;;
71773;SDS011;59607;52.130;5.430;2023-04-15T12:07:13;1.92;;;1.10;;
71773;SDS011;59607;52.130;5.430;2023-04-15T12:09:39;1.47;;;0.90;;
71773;SDS011;59607;52.130;5.430;2023-04-15T12:12:06;1.67;;;0.80;;
71773;SDS011;59607;52.130;5.430;2023-04-15T12:14:39;2.58;;;0.80;;
71773;SDS011;59607;52.130;5.430;2023-04-15T12:17:09;2.33;;;0.80;;
71773;SDS011;59607;52.130;5.430;2023-04-15T12:19:36;1.00;;;0.73;;
71773;SDS011;59607;52.130;5.430;2023-04-15T12:22:10;1.57;;;0.63;;
71773;SDS011;59607;52.130;5.430;2023-04-15T12:24:44;1.88;;;0.60;;
71773;SDS011;59607;52.130;5.430;2023-04-15T12:27:16;1.23;;;0.50;;
71773;SDS011;59607;52.130;5.430;2023-04-15T12:29:43;0.90;;;0.40;;
71773;SDS011;59607;52.130;5.430;2023-04-15T12:32:13;1.55;;;0.50;;
71773;SDS011;59607;52.130;5.430;2023-04-15T12:34:43;2.83;;;0.73;;
71773;SDS011;59607;52.130;5.430;2023-04-15T12:37:17;1.73;;;0.70;;
71773;SDS011;59607;52.130;5.430;2023-04-15T12:39:48;1.27;;;0.50;;
71773;SDS011;59607;52.130;5.430;2023-04-15T12:42:20;1.27;;;0.50;;
71773;SDS011;59607;52.130;5.430;2023-04-15T12:44:47;2.67;;;0.52;;
71773;SDS011;59607;52.130;5.430;2023-04-15T12:47:17;1.00;;;0.50;;
71773;SDS011;59607;52.130;5.430;2023-04-15T12:49:47;3.47;;;0.93;;
71773;SDS011;59607;52.130;5.430;2023-04-15T12:52:17;1.20;;;0.77;;
71773;SDS011;59607;52.130;5.430;2023-04-15T12:54:47;2.85;;;0.93;;
71773;SDS011;59607;52.130;5.430;2023-04-15T12:57:13;1.92;;;0.50;;
71773;SDS011;59607;52.130;5.430;2023-04-15T12:59:50;2.50;;;0.90;;
71773;SDS011;59607;52.130;5.430;2023-04-15T13:02:16;1.48;;;0.60;;
71773;SDS011;59607;52.130;5.430;2023-04-15T13:04:51;2.85;;;0.43;;
71773;SDS011;59607;52.130;5.430;2023-04-15T13:07:18;1.13;;;0.30;;
71773;SDS011;59607;52.130;5.430;2023-04-15T13:09:44;1.58;;;0.47;;
71773;SDS011;59607;52.130;5.430;2023-04-15T13:12:16;2.30;;;0.60;;
71773;SDS011;59607;52.130;5.430;2023-04-15T13:14:42;2.22;;;0.50;;
71773;SDS011;59607;52.130;5.430;2023-04-15T13:17:09;1.67;;;0.73;;
71773;SDS011;59607;52.130;5.430;2023-04-15T13:19:40;1.33;;;0.65;;
71773;SDS011;59607;52.130;5.430;2023-04-15T13:22:07;1.63;;;0.50;;
71773;SDS011;59607;52.130;5.430;2023-04-15T13:24:34;1.90;;;0.60;;
71773;SDS011;59607;52.130;5.430;2023-04-15T13:27:06;2.42;;;0.60;;
71773;SDS011;59607;52.130;5.430;2023-04-15T13:29:33;4.53;;;0.70;;
71773;SDS011;59607;52.130;5.430;2023-04-15T13:32:03;2.45;;;1.67;;
71773;SDS011;59607;52.130;5.430;2023-04-15T13:34:34;2.47;;;0.80;;
71773;SDS011;59607;52.130;5.430;2023-04-15T13:37:10;3.47;;;0.70;;
71773;SDS011;59607;52.130;5.430;2023-04-15T13:39:36;2.28;;;0.80;;
71773;SDS011;59607;52.130;5.430;2023-04-15T13:42:03;2.38;;;0.60;;
71773;SDS011;59607;52.130;5.430;2023-04-15T13:44:35;3.00;;;0.73;;
71773;SDS011;59607;52.130;5.430;2023-04-15T13:47:02;1.55;;;0.50;;
71773;SDS011;59607;52.130;5.430;2023-04-15T13:49:29;1.57;;;0.50;;
71773;SDS011;59607;52.130;5.430;2023-04-15T13:51:58;2.90;;;1.10;;
71773;SDS011;59607;52.130;5.430;2023-04-15T13:54:24;1.55;;;0.70;;
71773;SDS011;59607;52.130;5.430;2023-04-15T13:57:05;1.17;;;0.45;;
71773;SDS011;59607;52.130;5.430;2023-04-15T13:59:32;2.13;;;0.50;;
71773;SDS011;59607;52.130;5.430;2023-04-15T14:02:12;0.80;;;0.60;;
71773;SDS011;59607;52.130;5.430;2023-04-15T14:04:41;2.80;;;0.30;;
71773;SDS011;59607;52.130;5.430;2023-04-15T14:07:10;1.15;;;0.40;;
71773;SDS011;59607;52.130;5.430;2023-04-15T14:09:37;1.98;;;0.30;;
71773;SDS011;59607;52.130;5.430;2023-04-15T14:12:11;1.33;;;0.40;;
71773;SDS011;59607;52.130;5.430;2023-04-15T14:14:38;1.00;;;0.40;;
71773;SDS011;59607;52.130;5.430;2023-04-15T14:17:14;3.42;;;1.85;;
71773;SDS011;59607;52.130;5.430;2023-04-15T14:19:41;2.00;;;1.10;;
71773;SDS011;59607;52.130;5.430;2023-04-15T14:22:10;1.58;;;0.40;;
71773;SDS011;59607;52.130;5.430;2023-04-15T14:24:37;3.78;;;0.50;;
71773;SDS011;59607;52.130;5.430;2023-04-15T14:27:03;3.67;;;0.33;;
71773;SDS011;59607;52.130;5.430;2023-04-15T14:29:33;2.58;;;0.70;;
71773;SDS011;59607;52.130;5.430;2023-04-15T14:32:05;4.35;;;1.65;;
71773;SDS011;59607;52.130;5.430;2023-04-15T14:34:39;2.22;;;0.63;;
71773;SDS011;59607;52.130;5.430;2023-04-15T14:37:08;2.75;;;0.90;;
71773;SDS011;59607;52.130;5.430;2023-04-15T14:39:35;4.00;;;0.60;;
71773;SDS011;59607;52.130;5.430;2023-04-15T14:42:07;6.93;;;0.88;;
71773;SDS011;59607;52.130;5.430;2023-04-15T14:44:34;2.40;;;0.50;;
71773;SDS011;59607;52.130;5.430;2023-04-15T14:47:00;3.78;;;0.60;;
71773;SDS011;59607;52.130;5.430;2023-04-15T14:49:33;4.40;;;0.80;;
71773;SDS011;59607;52.130;5.430;2023-04-15T14:52:00;2.03;;;0.40;;
71773;SDS011;59607;52.130;5.430;2023-04-15T14:54:29;2.88;;;0.75;;
71773;SDS011;59607;52.130;5.430;2023-04-15T14:56:56;3.85;;;0.80;;
71773;SDS011;59607;52.130;5.430;2023-04-15T14:59:22;2.00;;;0.40;;
71773;SDS011;59607;52.130;5.430;2023-04-15T15:01:49;4.25;;;0.60;;
71773;SDS011;59607;52.130;5.430;2023-04-15T15:04:21;6.37;;;1.03;;
71773;SDS011;59607;52.130;5.430;2023-04-15T15:06:48;3.97;;;0.52;;
71773;SDS011;59607;52.130;5.430;2023-04-15T15:09:17;3.58;;;0.45;;
71773;SDS011;59607;52.130;5.430;2023-04-15T15:11:49;2.60;;;0.38;;
71773;SDS011;59607;52.130;5.430;2023-04-15T15:14:16;4.53;;;0.60;;